Time;durP1;ratioP1;P1;durP2;ratioP2;P2;SDS_P1;SDS_P2;PMS_P1;PMS_P2;Temp;Humidity;BMP_temperature;BMP_pressure;BME280_temperature;BME280_humidity;BME280_pressure;Samples;Min_cycle;Max_cycle;Signal;HPM_P1;HPM_P2
2020/12/22 00:01:13;;;;;;;6.47;5.88;;;9.30;99.90;;;;;;5052602;28;20036;-59
2020/12/22 00:03:43;;;;;;;8.50;6.88;;;9.30;99.90;;;;;;5052420;28;20037;-59
2020/12/22 00:06:10;;;;;;;9.77;5.72;;;9.40;99.90;;;;;;5053269;28;20028;-60
2020/12/22 00:08:35;;;;;;;9.13;6.03;;;9.40;99.90;;;;;;5052554;28;20055;-59
2020/12/22 00:11:01;;;;;;;7.40;5.95;;;9.40;99.90;;;;;;5053128;28;20100;-59
2020/12/22 00:13:27;;;;;;;6.20;5.43;;;9.40;99.90;;;;;;5035779;28;20029;-59
2020/12/22 00:15:53;;;;;;;7.65;5.13;;;9.40;99.90;;;;;;5052676;28;20504;-62
2020/12/22 00:18:18;;;;;;;6.05;5.05;;;9.40;99.90;;;;;;5053128;28;20047;-59
2020/12/22 00:20:44;;;;;;;5.78;5.18;;;9.50;99.90;;;;;;5052344;28;20032;-62
2020/12/22 00:23:10;;;;;;;6.43;4.95;;;9.50;99.90;;;;;;5053100;28;20076;-59
2020/12/22 00:25:44;;;;;;;5.63;4.82;;;9.50;99.90;;;;;;5052514;28;20138;-58
2020/12/22 00:28:11;;;;;;;6.97;5.40;;;9.50;99.90;;;;;;5035310;28;20127;-58
2020/12/22 00:30:36;;;;;;;6.30;4.95;;;9.60;99.90;;;;;;5052364;28;20029;-59
2020/12/22 00:33:04;;;;;;;4.53;3.67;;;9.60;99.90;;;;;;5052621;28;20086;-59
2020/12/22 00:35:29;;;;;;;4.30;3.85;;;9.60;99.90;;;;;;5053028;28;20029;-59
2020/12/22 00:37:55;;;;;;;4.53;3.30;;;9.60;99.90;;;;;;5051738;28;20029;-59
2020/12/22 00:40:21;;;;;;;3.78;3.30;;;9.60;99.90;;;;;;5052573;28;20355;-59
2020/12/22 00:42:46;;;;;;;3.42;2.67;;;9.70;99.90;;;;;;5051962;28;20036;-59
2020/12/22 00:45:12;;;;;;;3.28;2.97;;;9.70;99.90;;;;;;5052851;28;20031;-64
2020/12/22 00:47:38;;;;;;;5.15;3.15;;;9.70;99.90;;;;;;5052843;28;20062;-59
2020/12/22 00:50:03;;;;;;;2.85;2.60;;;9.70;99.90;;;;;;5053317;28;20359;-59
2020/12/22 00:52:29;;;;;;;4.70;3.22;;;9.70;99.90;;;;;;5054619;28;20037;-59
2020/12/22 00:54:55;;;;;;;2.92;2.50;;;9.70;99.90;;;;;;5035540;28;20386;-60
2020/12/22 00:57:20;;;;;;;3.28;2.55;;;9.80;99.90;;;;;;5036158;28;20117;-59
2020/12/22 00:59:46;;;;;;;4.10;2.67;;;9.80;99.90;;;;;;5035208;28;20075;-59
2020/12/22 01:02:12;;;;;;;2.50;2.30;;;9.90;99.90;;;;;;5053474;28;20025;-59
2020/12/22 01:04:37;;;;;;;3.97;2.22;;;9.90;99.90;;;;;;5051733;28;20041;-59
2020/12/22 01:07:03;;;;;;;3.90;2.55;;;9.90;99.90;;;;;;5034497;28;20048;-58
2020/12/22 01:09:29;;;;;;;2.88;2.35;;;10.00;99.90;;;;;;5053124;28;20036;-58
2020/12/22 01:11:54;;;;;;;3.75;2.88;;;9.90;99.90;;;;;;5054188;28;20021;-64
2020/12/22 01:14:20;;;;;;;2.88;2.58;;;10.00;99.90;;;;;;5053086;28;20104;-58
2020/12/22 01:16:46;;;;;;;2.67;2.47;;;9.90;99.90;;;;;;5051989;28;20025;-59
2020/12/22 01:19:11;;;;;;;3.78;2.30;;;9.90;99.90;;;;;;5052987;28;20497;-59
2020/12/22 01:21:37;;;;;;;2.50;2.20;;;9.90;99.90;;;;;;5052022;28;20374;-58
2020/12/22 01:24:06;;;;;;;2.28;2.08;;;10.00;99.90;;;;;;5052792;28;20036;-60
2020/12/22 01:26:32;;;;;;;3.35;2.13;;;10.00;99.90;;;;;;5053424;28;20113;-58
2020/12/22 01:28:58;;;;;;;5.18;2.53;;;10.00;99.90;;;;;;5052913;28;20025;-59
2020/12/22 01:31:26;;;;;;;2.08;1.80;;;10.00;99.90;;;;;;5036043;28;20055;-60
2020/12/22 01:33:53;;;;;;;3.42;2.08;;;10.10;99.90;;;;;;5053165;28;20033;-59
2020/12/22 01:36:19;;;;;;;2.40;2.20;;;10.10;99.90;;;;;;5035103;28;20033;-58
2020/12/22 01:38:46;;;;;;;2.38;2.08;;;10.10;99.90;;;;;;5051826;28;20104;-59
2020/12/22 01:41:12;;;;;;;2.20;1.83;;;10.00;99.90;;;;;;5018750;28;20021;-59
2020/12/22 01:43:37;;;;;;;1.77;1.58;;;10.00;99.90;;;;;;5054251;28;20045;-60
2020/12/22 01:46:04;;;;;;;2.35;2.13;;;10.00;99.90;;;;;;5054395;28;20043;-59
2020/12/22 01:48:30;;;;;;;3.13;1.88;;;10.00;99.90;;;;;;5037205;28;20029;-61
2020/12/22 01:50:56;;;;;;;1.73;1.60;;;10.10;99.90;;;;;;5057566;28;20392;-62
2020/12/22 01:53:22;;;;;;;2.40;2.10;;;10.10;99.90;;;;;;5023085;28;20037;-59
2020/12/22 01:55:47;;;;;;;1.88;1.77;;;10.10;99.90;;;;;;5055505;28;20083;-59
2020/12/22 01:58:13;;;;;;;2.65;1.90;;;10.10;99.90;;;;;;5056704;28;20028;-58
2020/12/22 02:00:39;;;;;;;2.13;2.03;;;10.10;99.90;;;;;;5056776;28;20065;-59
2020/12/22 02:03:06;;;;;;;2.30;2.10;;;10.00;99.90;;;;;;5022198;28;20059;-59
2020/12/22 02:05:37;;;;;;;2.75;2.45;;;10.10;99.90;;;;;;5039503;28;20083;-59
2020/12/22 02:08:04;;;;;;;2.53;2.33;;;10.10;99.90;;;;;;5056649;28;20066;-64
2020/12/22 02:10:30;;;;;;;3.25;1.90;;;10.10;99.90;;;;;;5038414;28;20040;-58
2020/12/22 02:12:55;;;;;;;2.45;1.92;;;10.10;99.90;;;;;;5055888;28;20021;-59
2020/12/22 02:15:21;;;;;;;3.13;2.00;;;10.10;99.90;;;;;;5055793;28;20114;-59
2020/12/22 02:17:47;;;;;;;2.10;1.90;;;10.20;99.90;;;;;;5055386;28;20032;-59
2020/12/22 02:20:12;;;;;;;1.70;1.60;;;10.20;99.90;;;;;;5056091;28;20029;-59
2020/12/22 02:22:39;;;;;;;2.10;1.90;;;10.30;99.90;;;;;;5038547;28;20064;-63
2020/12/22 02:25:16;;;;;;;2.15;1.95;;;10.20;99.90;;;;;;5038711;28;20370;-59
2020/12/22 02:27:42;;;;;;;1.95;1.60;;;10.30;99.90;;;;;;5056839;28;20025;-59
2020/12/22 02:30:07;;;;;;;2.17;2.08;;;10.30;99.90;;;;;;5055703;28;20033;-58
2020/12/22 02:32:33;;;;;;;2.15;1.95;;;10.30;99.90;;;;;;5037136;28;20087;-59
2020/12/22 02:34:59;;;;;;;1.90;1.80;;;10.30;99.90;;;;;;5037059;28;20167;-59
2020/12/22 02:37:25;;;;;;;2.42;2.20;;;10.30;99.90;;;;;;5055701;28;20024;-59
2020/12/22 02:39:50;;;;;;;2.38;2.13;;;10.30;99.90;;;;;;5037244;28;20029;-58
2020/12/22 02:42:16;;;;;;;6.38;1.83;;;10.30;99.90;;;;;;5055446;28;20029;-59
2020/12/22 02:44:42;;;;;;;3.22;2.10;;;10.30;99.90;;;;;;5036739;28;20037;-64
2020/12/22 02:47:13;;;;;;;1.73;1.52;;;10.40;99.90;;;;;;5055354;28;20086;-59
2020/12/22 02:49:43;;;;;;;2.08;1.80;;;10.40;99.90;;;;;;5054991;28;20039;-58
2020/12/22 02:52:09;;;;;;;1.98;1.65;;;10.40;99.90;;;;;;5054881;28;20381;-58
2020/12/22 02:54:35;;;;;;;2.25;1.60;;;10.50;99.90;;;;;;5055330;28;20033;-58
2020/12/22 02:57:01;;;;;;;3.03;2.15;;;10.40;99.90;;;;;;5055561;28;20036;-59
2020/12/22 02:59:27;;;;;;;2.60;1.92;;;10.40;99.90;;;;;;5021226;28;20029;-58
2020/12/22 03:01:53;;;;;;;1.35;1.25;;;10.40;99.90;;;;;;5037114;28;20032;-58
2020/12/22 03:04:18;;;;;;;2.00;1.35;;;10.40;99.90;;;;;;5055928;28;20041;-59
2020/12/22 03:06:44;;;;;;;1.45;1.17;;;10.50;99.90;;;;;;5036604;28;20075;-58
2020/12/22 03:09:10;;;;;;;3.30;2.05;;;10.50;99.90;;;;;;5054738;28;20171;-58
2020/12/22 03:11:36;;;;;;;1.95;1.42;;;10.50;99.90;;;;;;5036722;28;20429;-58
2020/12/22 03:14:02;;;;;;;2.13;1.65;;;10.50;99.90;;;;;;5054152;28;20033;-60
2020/12/22 03:16:27;;;;;;;1.35;1.10;;;10.50;99.90;;;;;;5054586;28;20021;-60
2020/12/22 03:18:53;;;;;;;4.70;1.42;;;10.40;99.90;;;;;;5053781;28;20055;-58
2020/12/22 03:21:21;;;;;;;1.00;0.88;;;10.50;99.90;;;;;;5054346;28;20029;-58
2020/12/22 03:23:46;;;;;;;1.25;0.82;;;10.60;99.90;;;;;;5053500;28;20490;-59
2020/12/22 03:26:12;;;;;;;1.17;1.08;;;10.60;99.90;;;;;;5054459;28;20036;-58
2020/12/22 03:28:38;;;;;;;1.58;1.00;;;10.50;99.90;;;;;;5054436;28;20021;-59
2020/12/22 03:31:04;;;;;;;0.98;0.90;;;10.60;99.90;;;;;;5053862;28;20029;-59
2020/12/22 03:33:29;;;;;;;0.55;0.50;;;10.60;99.90;;;;;;5053952;28;20041;-59
2020/12/22 03:35:55;;;;;;;0.60;0.43;;;10.60;99.90;;;;;;5053395;28;20550;-59
2020/12/22 03:38:21;;;;;;;2.58;0.60;;;10.60;99.90;;;;;;5036458;28;20025;-63
2020/12/22 03:40:47;;;;;;;0.57;0.40;;;10.60;99.90;;;;;;5053837;28;20038;-59
2020/12/22 03:43:13;;;;;;;1.40;1.30;;;10.60;99.90;;;;;;5036871;28;20041;-63
2020/12/22 03:45:39;;;;;;;0.43;0.30;;;10.60;99.90;;;;;;5037026;28;20032;-60
2020/12/22 03:48:05;;;;;;;0.75;0.30;;;10.80;99.90;;;;;;5054098;28;20025;-58
2020/12/22 03:50:31;;;;;;;0.75;0.20;;;10.60;99.90;;;;;;5054456;28;20083;-62
2020/12/22 03:53:03;;;;;;;1.67;0.30;;;10.70;99.90;;;;;;5053838;28;20082;-59
2020/12/22 03:55:29;;;;;;;0.40;0.20;;;10.70;99.90;;;;;;5036278;28;20120;-59
2020/12/22 03:57:54;;;;;;;0.43;0.20;;;10.80;99.90;;;;;;5053086;28;20108;-59
2020/12/22 04:00:20;;;;;;;0.30;0.10;;;10.80;99.90;;;;;;5053849;28;20124;-61
2020/12/22 04:02:45;;;;;;;1.30;0.10;;;10.90;99.90;;;;;;5034981;28;20508;-60
2020/12/22 04:05:12;;;;;;;1.20;0.20;;;10.90;99.90;;;;;;5054943;28;20033;-60
2020/12/22 04:07:38;;;;;;;1.23;0.10;;;10.90;99.90;;;;;;5054795;28;20379;-59
2020/12/22 04:10:05;;;;;;;0.30;0.20;;;10.80;99.90;;;;;;5053410;28;20399;-59
2020/12/22 04:12:31;;;;;;;0.50;0.10;;;10.80;99.90;;;;;;5052286;28;20029;-59
2020/12/22 04:14:57;;;;;;;0.70;0.22;;;10.80;99.90;;;;;;5052671;28;20463;-59
2020/12/22 04:17:22;;;;;;;1.65;0.35;;;10.90;99.90;;;;;;5035580;28;20071;-61
2020/12/22 04:19:48;;;;;;;1.25;0.77;;;10.90;99.90;;;;;;5052822;28;20077;-59
2020/12/22 04:22:14;;;;;;;1.08;0.35;;;10.90;99.90;;;;;;5052884;28;20070;-59
2020/12/22 04:24:39;;;;;;;0.55;0.25;;;10.90;99.90;;;;;;5035099;28;20037;-58
2020/12/22 04:27:05;;;;;;;0.77;0.70;;;10.80;99.90;;;;;;5052270;28;20174;-59
2020/12/22 04:29:31;;;;;;;0.30;0.30;;;10.90;99.90;;;;;;5052701;28;20462;-59
2020/12/22 04:31:57;;;;;;;0.65;0.30;;;10.90;99.90;;;;;;5034576;28;20112;-58
2020/12/22 04:34:23;;;;;;;0.45;0.30;;;11.00;99.90;;;;;;5052467;28;20033;-58
2020/12/22 04:36:48;;;;;;;0.40;0.30;;;10.90;99.90;;;;;;5052213;28;20451;-59
2020/12/22 04:39:14;;;;;;;0.55;0.38;;;10.90;99.90;;;;;;5053204;28;20032;-61
2020/12/22 04:41:46;;;;;;;0.88;0.30;;;11.00;99.90;;;;;;5035994;28;20029;-58
2020/12/22 04:44:12;;;;;;;2.05;0.50;;;11.00;99.90;;;;;;5035060;28;20463;-58
2020/12/22 04:46:38;;;;;;;1.27;0.20;;;11.00;99.90;;;;;;5053034;28;20027;-58
2020/12/22 04:49:09;;;;;;;0.20;0.20;;;11.10;99.90;;;;;;5052725;28;20057;-60
2020/12/22 04:51:37;;;;;;;0.52;0.28;;;11.10;99.90;;;;;;5053758;28;20025;-58
2020/12/22 04:54:05;;;;;;;1.02;0.35;;;11.10;99.90;;;;;;5035444;28;20071;-59
2020/12/22 04:56:31;;;;;;;0.30;0.20;;;11.10;99.90;;;;;;5053982;28;20378;-60
2020/12/22 04:58:57;;;;;;;0.95;0.47;;;11.10;99.90;;;;;;5053292;28;20025;-59
2020/12/22 05:01:23;;;;;;;0.60;0.20;;;11.10;99.90;;;;;;5036231;28;20029;-63
2020/12/22 05:03:48;;;;;;;0.40;0.10;;;11.20;99.90;;;;;;5052477;28;20033;-59
2020/12/22 05:06:14;;;;;;;0.50;0.25;;;11.20;99.90;;;;;;5035787;28;20378;-59
2020/12/22 05:08:39;;;;;;;0.57;0.17;;;11.20;99.90;;;;;;5035073;28;20048;-58
2020/12/22 05:11:13;;;;;;;0.35;0.32;;;11.20;99.90;;;;;;5052474;28;20029;-62
2020/12/22 05:13:39;;;;;;;0.57;0.20;;;11.20;99.90;;;;;;5052712;28;20029;-58
2020/12/22 05:16:05;;;;;;;0.68;0.10;;;11.20;99.90;;;;;;5053008;28;20025;-68
2020/12/22 05:18:32;;;;;;;1.83;0.20;;;11.30;99.90;;;;;;5035491;28;20532;-59
2020/12/22 05:21:00;;;;;;;0.70;0.10;;;11.20;99.90;;;;;;5052305;28;20079;-58
2020/12/22 05:23:27;;;;;;;0.35;0.15;;;11.30;99.90;;;;;;5055768;28;20029;-59
2020/12/22 05:25:53;;;;;;;0.65;0.30;;;11.30;99.90;;;;;;5057180;28;20045;-59
2020/12/22 05:28:21;;;;;;;0.20;0.10;;;11.40;99.90;;;;;;5056848;28;20060;-58
2020/12/22 05:30:51;;;;;;;1.92;0.00;;;11.40;99.90;;;;;;5056889;28;20501;-58
2020/12/22 05:33:17;;;;;;;0.30;0.13;;;11.40;99.90;;;;;;5056538;28;20076;-58
2020/12/22 05:35:45;;;;;;;0.40;0.10;;;11.40;99.90;;;;;;5056438;28;20056;-60
2020/12/22 05:38:18;;;;;;;2.33;0.30;;;11.40;99.90;;;;;;5055930;28;20112;-59
2020/12/22 05:40:44;;;;;;;0.52;0.10;;;11.50;99.90;;;;;;5056390;28;20032;-59
2020/12/22 05:43:11;;;;;;;0.95;0.10;;;11.50;99.90;;;;;;5056111;28;20047;-59
2020/12/22 05:45:39;;;;;;;0.40;0.25;;;11.50;99.90;;;;;;5056396;28;20028;-58
2020/12/22 05:48:06;;;;;;;0.55;0.10;;;11.50;99.90;;;;;;5055469;28;20058;-58
2020/12/22 05:50:32;;;;;;;1.27;0.00;;;11.60;99.90;;;;;;5056353;28;20033;-58
2020/12/22 05:52:59;;;;;;;1.88;0.10;;;11.60;99.90;;;;;;5055740;28;20108;-59
2020/12/22 05:55:30;;;;;;;0.10;0.00;;;11.80;99.90;;;;;;5056183;28;20078;-58
2020/12/22 05:58:12;;;;;;;4.90;1.77;;;11.70;99.90;;;;;;5037613;28;20051;-59
2020/12/22 06:00:43;;;;;;;0.45;0.10;;;11.80;99.90;;;;;;5055532;28;20163;-60
2020/12/22 06:03:11;;;;;;;0.17;0.00;;;11.70;99.90;;;;;;5037104;28;20037;-58
2020/12/22 06:05:39;;;;;;;1.55;0.10;;;11.80;99.90;;;;;;5055880;28;20065;-58
2020/12/22 06:08:06;;;;;;;0.05;0.00;;;11.80;99.90;;;;;;5054977;28;20060;-58
2020/12/22 06:10:33;;;;;;;0.30;0.00;;;11.80;99.90;;;;;;5055869;28;20474;-58
2020/12/22 06:12:59;;;;;;;0.20;0.10;;;11.80;99.90;;;;;;5055032;28;20056;-60
2020/12/22 06:15:25;;;;;;;0.93;0.90;;;11.80;99.90;;;;;;5055345;28;20097;-58
2020/12/22 06:17:51;;;;;;;1.42;0.10;;;11.80;99.90;;;;;;5055824;28;20033;-59
2020/12/22 06:20:22;;;;;;;0.03;0.00;;;11.80;99.90;;;;;;5037546;28;20029;-58
2020/12/22 06:22:49;;;;;;;0.73;0.00;;;11.80;99.90;;;;;;5038169;28;20025;-61
2020/12/22 06:25:21;;;;;;;0.95;0.10;;;11.80;99.90;;;;;;5037153;28;20359;-59
2020/12/22 06:27:48;;;;;;;0.38;0.00;;;11.80;99.90;;;;;;5055755;28;20078;-61
2020/12/22 06:30:17;;;;;;;0.10;0.00;;;11.90;99.90;;;;;;5055207;28;20036;-59
2020/12/22 06:32:44;;;;;;;0.13;0.00;;;11.80;99.90;;;;;;5055391;28;20053;-58
2020/12/22 06:35:33;;;;;;;3.42;0.08;;;11.80;99.90;;;;;;5053976;28;20039;-60
2020/12/22 06:37:59;;;;;;;0.13;0.03;;;11.80;99.90;;;;;;5054810;28;20066;-59
2020/12/22 06:40:53;;;;;;;0.20;0.00;;;11.80;99.90;;;;;;5037271;28;20025;-59
2020/12/22 06:43:37;;;;;;;0.55;0.10;;;11.80;99.90;;;;;;5055302;28;20121;-58
2020/12/22 06:46:03;;;;;;;1.75;0.00;;;11.80;99.90;;;;;;5054271;28;20439;-65
2020/12/22 06:48:43;;;;;;;1.13;0.10;;;11.80;99.90;;;;;;5037294;28;20044;-58
2020/12/22 06:51:27;;;;;;;0.55;0.10;;;11.90;99.90;;;;;;5036479;28;20090;-59
2020/12/22 06:53:54;;;;;;;0.10;0.00;;;11.80;99.90;;;;;;5037098;28;20029;-58
2020/12/22 06:56:39;;;;;;;0.22;0.00;;;11.80;99.90;;;;;;5055363;28;20024;-69
2020/12/22 06:59:04;;;;;;;0.38;0.38;;;11.80;99.90;;;;;;5054014;28;20466;-59
2020/12/22 07:01:31;;;;;;;0.28;0.03;;;11.80;99.90;;;;;;5055283;28;20036;-65
2020/12/22 07:04:21;;;;;;;0.68;0.00;;;11.80;99.90;;;;;;5035899;28;20041;-60
2020/12/22 07:06:47;;;;;;;0.88;0.08;;;11.80;99.90;;;;;;5054635;28;20057;-59
2020/12/22 07:09:24;;;;;;;0.10;0.00;;;11.80;99.90;;;;;;5036333;28;20055;-64
2020/12/22 07:11:52;;;;;;;0.55;0.00;;;11.90;99.90;;;;;;5036703;28;20036;-59
2020/12/22 07:14:22;;;;;;;0.10;0.00;;;11.80;99.90;;;;;;5054041;28;20036;-58
2020/12/22 07:16:50;;;;;;;0.90;0.40;;;11.80;99.90;;;;;;5036507;28;20060;-59
2020/12/22 07:19:22;;;;;;;0.10;0.00;;;11.80;99.90;;;;;;5035713;28;20378;-59
2020/12/22 07:21:48;;;;;;;2.95;0.10;;;11.70;99.90;;;;;;5036549;28;20025;-59
2020/12/22 07:24:14;;;;;;;0.10;0.08;;;11.80;99.90;;;;;;5035435;28;20037;-59
2020/12/22 07:26:40;;;;;;;0.10;0.00;;;11.80;99.90;;;;;;5036361;28;20029;-59
2020/12/22 07:29:06;;;;;;;0.93;0.00;;;11.80;99.90;;;;;;5053846;28;20108;-59
2020/12/22 07:31:34;;;;;;;0.28;0.00;;;11.90;99.90;;;;;;5055038;28;20058;-59
2020/12/22 07:34:06;;;;;;;1.15;0.10;;;11.90;99.90;;;;;;5036118;28;20048;-63
2020/12/22 07:36:33;;;;;;;0.30;0.10;;;11.90;99.90;;;;;;5053964;28;20082;-60
2020/12/22 07:39:11;;;;;;;0.40;0.00;;;11.90;99.90;;;;;;5053042;28;20080;-58
2020/12/22 07:41:37;;;;;;;0.50;0.00;;;11.90;99.90;;;;;;5053600;28;20033;-60
2020/12/22 07:44:15;;;;;;;0.15;0.03;;;11.80;99.90;;;;;;5053101;28;20040;-59
2020/12/22 07:46:42;;;;;;;0.82;0.28;;;11.90;99.90;;;;;;5054111;28;20032;-59
2020/12/22 07:49:09;;;;;;;0.52;0.10;;;11.90;99.90;;;;;;5053556;28;20365;-60
2020/12/22 07:51:35;;;;;;;0.68;0.10;;;11.90;99.90;;;;;;5053666;28;20029;-59
2020/12/22 07:54:03;;;;;;;0.38;0.10;;;11.80;99.90;;;;;;5052868;28;20493;-58
2020/12/22 07:56:31;;;;;;;4.47;0.20;;;11.80;99.90;;;;;;5035742;28;20059;-58
2020/12/22 07:58:57;;;;;;;0.55;0.10;;;11.90;99.90;;;;;;5035662;28;20025;-61
2020/12/22 08:01:23;;;;;;;0.10;0.00;;;11.90;99.90;;;;;;5053057;28;20441;-58
2020/12/22 08:03:49;;;;;;;1.05;0.17;;;11.90;99.90;;;;;;5035497;28;20494;-59
2020/12/22 08:06:15;;;;;;;1.42;0.15;;;12.00;99.90;;;;;;5034925;28;20025;-59
2020/12/22 08:08:40;;;;;;;1.75;0.10;;;12.00;99.90;;;;;;5053617;28;20045;-58
2020/12/22 08:11:06;;;;;;;0.25;0.08;;;12.00;99.90;;;;;;5035166;28;20021;-60
2020/12/22 08:13:38;;;;;;;2.35;0.10;;;12.00;99.90;;;;;;5055003;28;20079;-58
2020/12/22 08:16:04;;;;;;;0.52;0.22;;;11.90;99.90;;;;;;5036012;28;20048;-64
2020/12/22 08:18:32;;;;;;;2.30;0.10;;;12.00;99.90;;;;;;5036550;28;20489;-60
2020/12/22 08:21:00;;;;;;;0.22;0.10;;;11.90;99.90;;;;;;5035992;28;20029;-58
2020/12/22 08:23:28;;;;;;;1.10;0.20;;;11.90;99.90;;;;;;5054154;28;20029;-61
2020/12/22 08:25:54;;;;;;;0.93;0.20;;;12.00;99.90;;;;;;5019965;28;20482;-59
2020/12/22 08:28:26;;;;;;;2.35;0.30;;;12.00;99.90;;;;;;5053591;28;20048;-59
2020/12/22 08:30:55;;;;;;;0.22;0.10;;;12.00;99.90;;;;;;5053406;28;20040;-59
2020/12/22 08:33:22;;;;;;;0.50;0.30;;;11.90;99.90;;;;;;5034953;28;20060;-60
2020/12/22 08:35:49;;;;;;;0.47;0.30;;;12.00;99.90;;;;;;5053232;28;20490;-61
2020/12/22 08:38:25;;;;;;;0.57;0.30;;;12.00;99.90;;;;;;5035053;28;20470;-58
2020/12/22 08:40:53;;;;;;;2.53;0.10;;;12.00;99.90;;;;;;5053562;28;20029;-60
2020/12/22 08:43:22;;;;;;;0.77;0.10;;;12.10;99.90;;;;;;5036093;28;20048;-60
2020/12/22 08:45:48;;;;;;;0.40;0.13;;;12.10;99.90;;;;;;5054273;28;20025;-59
2020/12/22 08:48:14;;;;;;;1.25;0.32;;;12.20;99.90;;;;;;5054192;28;20036;-62
2020/12/22 08:51:06;;;;;;;2.30;0.15;;;12.20;99.90;;;;;;5054927;28;20021;-62
2020/12/22 08:53:31;;;;;;;0.65;0.10;;;12.30;99.90;;;;;;5034203;28;20094;-61
2020/12/22 08:56:08;;;;;;;1.15;0.10;;;12.30;99.90;;;;;;5036035;28;20326;-59
2020/12/22 08:58:34;;;;;;;0.47;0.30;;;12.30;99.90;;;;;;5035803;28;20033;-59
2020/12/22 09:01:16;;;;;;;0.10;0.00;;;12.40;99.90;;;;;;5054074;28;20082;-60
2020/12/22 09:03:51;;;;;;;1.48;0.40;;;12.50;99.90;;;;;;5034845;28;20045;-62
2020/12/22 09:06:18;;;;;;;0.20;0.10;;;12.50;99.90;;;;;;5053337;28;20025;-59
2020/12/22 09:08:46;;;;;;;0.25;0.15;;;12.60;99.90;;;;;;5052540;28;20510;-60
2020/12/22 09:11:20;;;;;;;0.35;0.00;;;12.60;99.90;;;;;;5034612;28;20029;-60
2020/12/22 09:13:57;;;;;;;0.10;0.00;;;12.70;99.90;;;;;;5052870;28;20029;-61
2020/12/22 09:16:22;;;;;;;1.05;0.70;;;12.70;99.90;;;;;;5052252;28;20512;-60
2020/12/22 09:18:48;;;;;;;0.22;0.10;;;12.80;99.90;;;;;;5035411;28;20556;-60
2020/12/22 09:21:14;;;;;;;0.20;0.10;;;12.80;99.90;;;;;;5052765;28;20120;-60
2020/12/22 09:23:44;;;;;;;1.75;0.08;;;12.80;99.90;;;;;;5053113;28;20064;-60
2020/12/22 09:26:10;;;;;;;0.52;0.10;;;12.80;99.90;;;;;;5052929;28;20036;-62
2020/12/22 09:28:35;;;;;;;0.38;0.10;;;12.80;99.90;;;;;;5053741;28;20521;-65
2020/12/22 09:31:01;;;;;;;0.75;0.10;;;12.80;99.90;;;;;;5036006;28;20055;-64
2020/12/22 09:33:27;;;;;;;0.20;0.00;;;12.80;99.90;;;;;;5053546;28;20443;-62
2020/12/22 09:35:52;;;;;;;0.30;0.22;;;12.80;99.90;;;;;;5054190;28;20029;-61
2020/12/22 09:38:18;;;;;;;0.30;0.10;;;12.80;99.90;;;;;;5053128;28;20434;-60
2020/12/22 09:40:43;;;;;;;0.20;0.10;;;12.80;99.90;;;;;;5035866;28;20075;-61
2020/12/22 09:43:09;;;;;;;0.40;0.00;;;12.80;99.90;;;;;;5053633;28;20066;-59
2020/12/22 09:45:35;;;;;;;0.43;0.10;;;12.90;99.90;;;;;;5053195;28;20390;-59
2020/12/22 09:48:00;;;;;;;0.75;0.08;;;12.80;99.90;;;;;;5053739;28;20421;-59
2020/12/22 09:50:26;;;;;;;0.35;0.05;;;12.90;99.90;;;;;;5034861;28;20032;-58
2020/12/22 09:52:51;;;;;;;0.20;0.10;;;12.90;99.90;;;;;;5034823;28;20032;-64
2020/12/22 09:55:17;;;;;;;0.20;0.10;;;12.90;99.90;;;;;;5052233;28;20055;-61
2020/12/22 09:57:42;;;;;;;0.20;0.03;;;12.90;99.90;;;;;;5052535;28;20104;-59
2020/12/22 10:00:09;;;;;;;0.30;0.10;;;12.90;99.90;;;;;;5033844;28;20032;-67
2020/12/22 10:02:35;;;;;;;0.30;0.10;;;13.10;99.90;;;;;;5052992;28;20044;-65
2020/12/22 10:05:00;;;;;;;0.52;0.10;;;13.00;99.90;;;;;;5051919;28;20041;-59
2020/12/22 10:07:26;;;;;;;0.77;0.05;;;13.20;99.90;;;;;;5051201;28;20045;-59
2020/12/22 10:09:52;;;;;;;0.30;0.10;;;13.20;99.90;;;;;;5035538;28;20040;-60
2020/12/22 10:12:17;;;;;;;0.20;0.03;;;13.20;99.90;;;;;;5037183;28;20071;-62
2020/12/22 10:14:43;;;;;;;0.40;0.10;;;13.30;99.90;;;;;;5055424;28;20029;-60
2020/12/22 10:17:09;;;;;;;0.00;0.00;;;13.30;99.90;;;;;;5037140;28;20067;-61
2020/12/22 10:19:34;;;;;;;0.10;0.05;;;13.40;99.90;;;;;;5037627;28;20485;-59
2020/12/22 10:22:00;;;;;;;0.43;0.00;;;13.40;99.90;;;;;;5037337;28;20025;-59
2020/12/22 10:24:25;;;;;;;0.17;0.00;;;13.40;99.90;;;;;;5054657;28;20224;-60
2020/12/22 10:26:51;;;;;;;1.98;0.20;;;13.40;99.90;;;;;;5055296;28;20056;-59
2020/12/22 10:29:16;;;;;;;0.73;0.10;;;13.50;99.90;;;;;;5054553;28;20429;-61
2020/12/22 10:31:42;;;;;;;0.80;0.10;;;13.40;99.90;;;;;;5055057;28;20033;-60
2020/12/22 10:34:08;;;;;;;0.68;0.10;;;13.40;99.90;;;;;;5019930;28;20060;-62
2020/12/22 10:36:33;;;;;;;0.38;0.10;;;13.50;99.90;;;;;;5055605;28;20032;-60
2020/12/22 10:38:59;;;;;;;0.43;0.10;;;13.40;99.90;;;;;;5055047;28;20482;-61
2020/12/22 10:41:25;;;;;;;0.22;0.05;;;13.50;99.90;;;;;;5054352;28;20154;-59
2020/12/22 10:43:52;;;;;;;0.30;0.10;;;13.50;99.90;;;;;;5037262;28;20116;-59
2020/12/22 10:46:18;;;;;;;0.32;0.10;;;13.50;99.90;;;;;;5055181;28;20033;-59
2020/12/22 10:48:44;;;;;;;0.40;0.17;;;13.50;99.90;;;;;;5054933;28;20033;-59
2020/12/22 10:51:11;;;;;;;1.40;0.20;;;13.50;99.90;;;;;;5036552;28;20028;-59
2020/12/22 10:53:36;;;;;;;0.10;0.00;;;13.40;99.90;;;;;;5055207;28;20075;-59
2020/12/22 10:56:08;;;;;;;1.08;0.22;;;13.50;99.90;;;;;;5037050;28;20025;-58
2020/12/22 10:58:34;;;;;;;0.30;0.00;;;13.50;99.90;;;;;;5055403;28;20025;-59
2020/12/22 11:00:59;;;;;;;0.50;0.10;;;13.50;99.90;;;;;;5037250;28;20040;-59
2020/12/22 11:03:25;;;;;;;0.40;0.10;;;13.60;99.90;;;;;;5054128;28;20045;-59
2020/12/22 11:08:40;;;;;;;2.72;0.10;;;13.60;99.90;;;;;;5056707;28;20060;-65
2020/12/22 11:11:07;;;;;;;0.40;0.07;;;13.60;99.90;;;;;;5056326;28;20025;-64
2020/12/22 11:13:33;;;;;;;0.57;0.10;;;13.80;99.90;;;;;;5055652;28;20282;-59
2020/12/22 11:15:59;;;;;;;0.65;0.10;;;13.80;99.90;;;;;;5056078;28;20410;-62
2020/12/22 11:18:25;;;;;;;0.45;0.20;;;13.90;99.90;;;;;;5037304;28;20021;-61
2020/12/22 11:20:50;;;;;;;0.10;0.00;;;13.90;99.90;;;;;;5055050;28;20060;-63
2020/12/22 11:23:16;;;;;;;0.35;0.08;;;14.00;99.90;;;;;;5054454;28;20032;-60
2020/12/22 11:25:42;;;;;;;0.73;0.10;;;14.10;99.90;;;;;;5054991;28;20083;-59
2020/12/22 11:28:07;;;;;;;0.68;0.20;;;14.10;99.90;;;;;;5054634;28;20024;-60
2020/12/22 11:30:34;;;;;;;1.85;0.05;;;14.20;99.90;;;;;;5055360;28;20370;-65
2020/12/22 11:32:59;;;;;;;0.30;0.03;;;14.30;99.90;;;;;;5038574;28;20067;-60
2020/12/22 11:35:25;;;;;;;0.65;0.52;;;14.30;99.90;;;;;;5037231;28;20126;-62
2020/12/22 11:37:50;;;;;;;0.20;0.10;;;14.30;99.90;;;;;;5038067;28;20392;-59
2020/12/22 11:40:16;;;;;;;0.32;0.10;;;14.50;99.90;;;;;;5036923;28;20029;-61
2020/12/22 11:42:42;;;;;;;0.93;0.10;;;14.60;99.90;;;;;;5055584;28;20083;-61
2020/12/22 11:45:08;;;;;;;0.20;0.10;;;14.80;99.90;;;;;;5037164;28;20033;-60
2020/12/22 11:47:34;;;;;;;1.08;0.10;;;14.70;99.90;;;;;;5054337;28;20029;-59
2020/12/22 11:50:00;;;;;;;0.73;0.17;;;14.70;99.90;;;;;;5036623;28;20086;-59
2020/12/22 11:52:25;;;;;;;0.63;0.30;;;14.60;99.90;;;;;;5035687;28;20424;-59
2020/12/22 11:54:51;;;;;;;0.45;0.13;;;14.50;99.90;;;;;;5037006;28;20025;-65
2020/12/22 11:57:17;;;;;;;1.02;0.25;;;14.40;99.90;;;;;;5053875;28;20037;-61
2020/12/22 11:59:43;;;;;;;1.67;0.80;;;14.30;99.90;;;;;;5035207;28;20119;-62
2020/12/22 12:02:08;;;;;;;0.98;0.10;;;14.20;99.90;;;;;;5035206;28;20040;-60
2020/12/22 12:04:34;;;;;;;0.15;0.10;;;14.30;99.90;;;;;;5052848;28;20051;-59
2020/12/22 12:07:00;;;;;;;0.10;0.00;;;14.30;99.90;;;;;;5053385;28;20028;-59
2020/12/22 12:09:26;;;;;;;1.00;0.30;;;14.50;99.90;;;;;;5052970;28;20021;-60
2020/12/22 12:11:52;;;;;;;0.30;0.20;;;14.60;99.90;;;;;;5053341;28;20478;-60
2020/12/22 12:14:19;;;;;;;0.20;0.10;;;14.60;99.90;;;;;;5034650;28;20064;-60
2020/12/22 12:16:49;;;;;;;2.50;0.20;;;14.50;99.90;;;;;;5035191;28;20032;-60
2020/12/22 12:19:16;;;;;;;1.05;0.20;;;14.50;99.90;;;;;;5052598;28;20028;-62
2020/12/22 12:21:41;;;;;;;0.50;0.20;;;14.50;99.90;;;;;;5053154;28;20025;-59
2020/12/22 12:24:07;;;;;;;0.60;0.17;;;14.40;99.90;;;;;;5052470;28;20051;-60
2020/12/22 12:26:34;;;;;;;0.38;0.20;;;14.40;99.90;;;;;;5052403;28;20279;-61
2020/12/22 12:29:00;;;;;;;2.20;0.10;;;14.40;99.90;;;;;;5052793;28;20021;-59
2020/12/22 12:31:27;;;;;;;3.17;1.02;;;14.40;99.90;;;;;;5033987;28;20073;-60
2020/12/22 12:33:53;;;;;;;0.22;0.13;;;14.40;99.90;;;;;;5052089;28;20532;-59
2020/12/22 12:36:19;;;;;;;0.47;0.10;;;14.30;99.90;;;;;;5034696;28;20025;-61
2020/12/22 12:38:44;;;;;;;1.15;0.10;;;14.30;99.90;;;;;;5052197;28;20382;-60
2020/12/22 12:41:14;;;;;;;0.70;0.20;;;14.20;99.90;;;;;;5035004;28;20078;-60
2020/12/22 12:43:40;;;;;;;1.00;0.22;;;14.20;99.90;;;;;;5052732;28;20044;-59
2020/12/22 12:46:07;;;;;;;0.85;0.17;;;14.10;99.90;;;;;;5052338;28;20032;-59
2020/12/22 12:48:34;;;;;;;0.50;0.10;;;14.10;99.90;;;;;;5034600;28;20069;-63
2020/12/22 12:51:00;;;;;;;1.77;0.32;;;14.10;99.90;;;;;;5052420;28;20025;-61